Time;durP1;ratioP1;P1;durP2;ratioP2;P2;SDS_P1;SDS_P2;PMS_P1;PMS_P2;Temp;Humidity;BMP_temperature;BMP_pressure;BME280_temperature;BME280_humidity;BME280_pressure;Samples;Min_cycle;Max_cycle;Signal;HPM_P1;HPM_P2
2023/01/10 00:01:29;;;;;;;8.18;3.45;;;12.50;99.90;;;;;;5083071;28;20402;-74
2023/01/10 00:03:56;;;;;;;4.25;1.80;;;12.60;99.90;;;;;;5080679;28;20049;-74
2023/01/10 00:06:24;;;;;;;13.35;4.35;;;12.60;99.90;;;;;;5080720;28;20055;-74
2023/01/10 00:08:51;;;;;;;4.43;2.25;;;12.60;99.90;;;;;;5073765;28;20080;-74
2023/01/10 00:14:27;;;;;;;6.78;3.05;;;12.50;99.90;;;;;;5024333;28;20161;-74
2023/01/10 00:16:56;;;;;;;11.18;2.92;;;12.50;99.90;;;;;;5009512;28;20061;-74
2023/01/10 00:19:23;;;;;;;5.80;2.05;;;12.50;99.90;;;;;;5038222;28;20463;-77
2023/01/10 00:21:52;;;;;;;9.25;2.08;;;12.40;99.90;;;;;;5078784;28;20056;-77
2023/01/10 00:24:21;;;;;;;4.80;2.58;;;12.40;99.90;;;;;;5079448;28;20044;-74
2023/01/10 00:26:50;;;;;;;4.90;2.30;;;12.40;99.90;;;;;;5080673;28;20098;-74
2023/01/10 00:29:19;;;;;;;7.47;2.83;;;12.40;99.90;;;;;;5083788;28;20429;-74
2023/01/10 00:31:47;;;;;;;11.60;3.85;;;12.40;99.90;;;;;;5076493;28;20043;-74
2023/01/10 00:34:15;;;;;;;15.88;3.10;;;12.40;99.90;;;;;;5076637;28;20046;-74
2023/01/10 00:36:44;;;;;;;8.10;2.72;;;12.40;99.90;;;;;;5076672;28;20040;-74
2023/01/10 00:39:12;;;;;;;13.30;3.92;;;12.40;99.90;;;;;;5079774;28;20580;-74
2023/01/10 00:44:26;;;;;;;5.78;2.05;;;12.40;99.90;;;;;;5068230;28;20048;-74
2023/01/10 00:46:54;;;;;;;9.35;2.88;;;12.40;99.90;;;;;;5068937;28;20045;-74
2023/01/10 00:49:23;;;;;;;9.93;2.67;;;12.40;99.90;;;;;;5074665;28;20059;-74
2023/01/10 00:51:51;;;;;;;7.53;2.75;;;12.40;99.90;;;;;;5081130;28;20036;-74
2023/01/10 00:54:19;;;;;;;8.98;3.88;;;12.30;99.90;;;;;;5053716;28;20599;-73
2023/01/10 00:56:46;;;;;;;4.18;1.95;;;12.20;99.90;;;;;;5068360;28;20048;-74
2023/01/10 00:59:14;;;;;;;8.77;3.13;;;12.10;99.90;;;;;;5082657;28;20036;-73
2023/01/10 01:01:41;;;;;;;10.63;3.05;;;12.10;99.90;;;;;;5081261;28;20282;-73
2023/01/10 01:04:09;;;;;;;8.68;3.75;;;12.00;99.90;;;;;;5073810;28;20044;-74
2023/01/10 01:06:36;;;;;;;14.30;3.88;;;12.00;99.90;;;;;;5067840;28;20136;-73
2023/01/10 01:09:04;;;;;;;12.88;3.00;;;12.00;99.90;;;;;;5073939;28;20047;-73
2023/01/10 01:11:31;;;;;;;5.03;2.85;;;11.90;99.90;;;;;;5049769;28;20052;-75
2023/01/10 01:13:59;;;;;;;10.45;3.65;;;11.90;99.90;;;;;;5051562;28;20062;-74
2023/01/10 01:16:26;;;;;;;10.55;3.42;;;11.90;99.90;;;;;;5054619;28;20067;-73
2023/01/10 01:18:54;;;;;;;7.28;3.13;;;11.80;99.90;;;;;;5068863;28;20041;-73
2023/01/10 01:21:26;;;;;;;9.73;2.97;;;11.80;99.90;;;;;;5078846;28;20256;-74
2023/01/10 01:23:57;;;;;;;12.98;4.40;;;11.80;99.90;;;;;;5071421;28;20066;-74
2023/01/10 01:26:25;;;;;;;8.63;3.17;;;11.80;99.90;;;;;;5077803;28;20113;-74
2023/01/10 01:28:52;;;;;;;7.82;3.90;;;11.70;99.90;;;;;;5076833;28;20036;-74
2023/01/10 01:31:20;;;;;;;6.88;2.50;;;11.70;99.90;;;;;;5078469;28;20135;-73
2023/01/10 01:33:50;;;;;;;9.45;2.75;;;11.70;99.90;;;;;;5075092;28;20048;-73
2023/01/10 01:36:18;;;;;;;9.20;2.63;;;11.80;99.90;;;;;;5070337;28;20041;-73
2023/01/10 01:38:46;;;;;;;10.75;3.55;;;11.80;99.90;;;;;;5083995;28;20810;-74
2023/01/10 01:44:13;;;;;;;13.73;2.95;;;11.90;99.90;;;;;;5088513;28;20632;-73
2023/01/10 01:46:42;;;;;;;13.50;3.13;;;11.90;99.90;;;;;;5088016;28;20047;-74
2023/01/10 01:49:18;;;;;;;13.80;3.65;;;11.90;99.90;;;;;;5086481;28;20059;-74
2023/01/10 01:51:50;;;;;;;6.43;4.13;;;12.00;99.90;;;;;;5087530;28;20394;-74
2023/01/10 01:54:18;;;;;;;9.80;4.32;;;12.00;99.90;;;;;;5086887;28;20044;-74
2023/01/10 01:56:53;;;;;;;15.95;6.15;;;12.00;99.90;;;;;;5088595;28;20081;-74
2023/01/10 01:59:23;;;;;;;12.70;6.03;;;12.00;99.90;;;;;;5088508;28;20123;-74
2023/01/10 02:01:56;;;;;;;10.10;5.32;;;12.10;99.90;;;;;;5087744;28;20558;-74
2023/01/10 02:04:33;;;;;;;14.45;4.32;;;12.10;99.90;;;;;;5086757;28;20215;-74
2023/01/10 02:07:01;;;;;;;8.88;3.85;;;12.10;99.90;;;;;;5087114;28;20036;-73
2023/01/10 02:09:39;;;;;;;12.60;3.33;;;12.00;99.90;;;;;;5092407;28;20102;-74
2023/01/10 02:12:08;;;;;;;10.77;3.83;;;12.10;99.90;;;;;;5092194;28;20043;-74
2023/01/10 02:14:41;;;;;;;6.60;3.45;;;12.10;99.90;;;;;;5091603;28;20048;-74
2023/01/10 02:17:10;;;;;;;11.35;5.03;;;12.10;99.90;;;;;;5074653;28;20055;-74
2023/01/10 02:19:58;;;;;;;7.80;4.30;;;12.00;99.90;;;;;;5090852;28;20047;-73
2023/01/10 02:22:46;;;;;;;9.13;3.45;;;12.10;99.90;;;;;;5091070;28;20040;-74
2023/01/10 02:25:50;;;;;;;7.75;3.22;;;12.00;99.90;;;;;;5073632;28;20051;-73
2023/01/10 02:28:29;;;;;;;12.00;3.78;;;12.00;99.90;;;;;;5073898;28;20081;-73
2023/01/10 02:31:33;;;;;;;10.27;3.03;;;12.00;99.90;;;;;;5071790;28;20044;-74
2023/01/10 02:34:09;;;;;;;8.70;3.35;;;12.00;99.90;;;;;;5070536;28;20048;-74
2023/01/10 02:36:42;;;;;;;9.83;3.50;;;12.10;99.90;;;;;;5071100;28;20530;-73
2023/01/10 02:39:33;;;;;;;7.90;3.30;;;12.00;99.90;;;;;;5072966;28;20044;-74
2023/01/10 02:42:08;;;;;;;7.88;3.83;;;12.00;99.90;;;;;;5090377;28;20043;-74
2023/01/10 02:44:53;;;;;;;8.48;4.00;;;12.00;99.90;;;;;;5073582;28;20044;-73
2023/01/10 02:47:20;;;;;;;13.10;3.13;;;12.00;99.90;;;;;;5091310;28;20044;-74
2023/01/10 02:49:50;;;;;;;9.10;2.95;;;12.00;99.90;;;;;;5089851;28;20048;-74
2023/01/10 02:52:25;;;;;;;10.60;2.92;;;12.00;99.90;;;;;;5089703;28;20055;-74
2023/01/10 02:55:00;;;;;;;6.28;3.15;;;11.90;99.90;;;;;;5090870;28;20047;-73
2023/01/10 02:57:47;;;;;;;10.52;3.25;;;11.80;99.90;;;;;;5091629;28;20048;-73
2023/01/10 03:00:21;;;;;;;9.40;2.30;;;11.80;99.90;;;;;;5089578;28;20572;-74
2023/01/10 03:03:00;;;;;;;13.25;3.97;;;11.70;99.90;;;;;;5089016;28;20052;-74
2023/01/10 03:05:48;;;;;;;15.43;3.78;;;11.70;99.90;;;;;;5036173;28;20140;-73
2023/01/10 03:08:29;;;;;;;10.13;4.10;;;11.60;99.90;;;;;;5030243;28;20070;-74
2023/01/10 03:11:03;;;;;;;6.53;2.97;;;11.70;99.90;;;;;;5047007;28;20445;-74
2023/01/10 03:13:56;;;;;;;11.70;2.50;;;11.60;99.90;;;;;;5013957;28;20085;-74
2023/01/10 03:16:28;;;;;;;8.25;3.05;;;11.60;99.90;;;;;;5030896;28;20491;-73
2023/01/10 03:19:02;;;;;;;8.27;2.92;;;11.70;99.90;;;;;;5029730;28;20042;-74
2023/01/10 03:21:33;;;;;;;9.73;2.63;;;11.70;99.90;;;;;;5033309;28;20088;-73
2023/01/10 03:24:06;;;;;;;15.10;3.40;;;11.70;99.90;;;;;;5033011;28;20152;-73
2023/01/10 03:27:00;;;;;;;9.32;3.03;;;11.70;99.90;;;;;;5049004;28;20055;-74
2023/01/10 03:29:38;;;;;;;16.15;2.63;;;11.80;99.90;;;;;;5032927;28;20033;-74
2023/01/10 03:32:10;;;;;;;11.15;2.38;;;11.80;99.90;;;;;;5032967;28;20055;-74
2023/01/10 03:34:39;;;;;;;5.47;1.85;;;11.80;99.90;;;;;;5033088;28;20052;-74
2023/01/10 03:37:45;;;;;;;6.22;2.38;;;11.80;99.90;;;;;;5049235;28;20080;-73
2023/01/10 03:40:16;;;;;;;5.93;2.28;;;11.80;99.90;;;;;;5049088;28;20106;-74
2023/01/10 03:46:01;;;;;;;4.70;2.10;;;11.70;99.90;;;;;;5043684;28;20057;-74
2023/01/10 03:48:35;;;;;;;3.38;1.67;;;11.70;99.90;;;;;;5049997;28;20045;-74
2023/01/10 03:51:05;;;;;;;13.77;2.70;;;11.70;99.90;;;;;;5050070;28;20132;-73
2023/01/10 03:53:36;;;;;;;5.00;1.98;;;11.70;99.90;;;;;;5048980;28;20049;-73
2023/01/10 03:56:04;;;;;;;2.97;1.75;;;11.70;99.90;;;;;;5050057;28;20052;-74
2023/01/10 03:58:31;;;;;;;5.65;1.88;;;11.60;99.90;;;;;;5049827;28;20063;-74
2023/01/10 04:00:59;;;;;;;4.45;1.70;;;11.60;99.90;;;;;;5049811;28;20041;-74
2023/01/10 04:03:26;;;;;;;4.85;2.65;;;11.50;99.90;;;;;;5057510;28;20074;-73
2023/01/10 04:05:53;;;;;;;6.50;2.17;;;11.60;99.90;;;;;;5090127;28;20874;-74
2023/01/10 04:08:22;;;;;;;6.78;1.77;;;11.60;99.90;;;;;;5089302;28;20048;-73
2023/01/10 04:10:50;;;;;;;4.30;1.70;;;11.60;99.90;;;;;;5089085;28;20085;-74
2023/01/10 04:13:17;;;;;;;1.90;1.40;;;11.70;99.90;;;;;;5088660;28;20095;-74
2023/01/10 04:15:44;;;;;;;3.85;2.42;;;11.70;99.90;;;;;;5088521;28;20036;-73
2023/01/10 04:18:14;;;;;;;2.45;1.38;;;11.70;99.90;;;;;;5070588;28;20071;-73
2023/01/10 04:20:41;;;;;;;3.92;2.17;;;11.60;99.90;;;;;;5089763;28;20044;-73
2023/01/10 04:23:09;;;;;;;6.85;2.42;;;11.60;99.90;;;;;;5088360;28;20134;-74
2023/01/10 04:25:36;;;;;;;4.50;1.75;;;11.50;99.90;;;;;;5088506;28;20059;-74
2023/01/10 04:28:04;;;;;;;6.15;2.08;;;11.50;99.90;;;;;;5069705;28;20410;-73
2023/01/10 04:30:32;;;;;;;5.93;1.92;;;11.30;99.90;;;;;;5078925;28;20109;-74
2023/01/10 04:32:59;;;;;;;5.32;2.00;;;11.20;99.90;;;;;;5071099;28;20052;-74
2023/01/10 04:35:27;;;;;;;4.95;1.70;;;11.10;99.90;;;;;;5088386;28;20189;-74
2023/01/10 04:37:54;;;;;;;2.15;1.25;;;11.00;99.90;;;;;;5088857;28;20075;-74
2023/01/10 04:40:22;;;;;;;4.85;1.40;;;11.10;99.90;;;;;;5087701;28;20157;-74
2023/01/10 04:42:50;;;;;;;7.50;2.08;;;11.10;99.90;;;;;;5089942;28;20393;-74
2023/01/10 04:45:20;;;;;;;3.05;1.77;;;11.10;99.90;;;;;;5089262;28;20040;-73
2023/01/10 04:47:49;;;;;;;4.20;1.85;;;11.20;99.90;;;;;;5087877;28;20119;-73
2023/01/10 04:50:17;;;;;;;10.27;2.67;;;11.20;99.90;;;;;;5054162;28;20083;-74
2023/01/10 04:52:45;;;;;;;6.75;2.30;;;11.20;99.90;;;;;;5087969;28;20328;-74
2023/01/10 04:55:12;;;;;;;5.00;2.60;;;11.20;99.90;;;;;;5087871;28;20040;-74
2023/01/10 04:57:39;;;;;;;3.28;1.30;;;11.20;99.90;;;;;;5087671;28;20040;-73
2023/01/10 05:00:08;;;;;;;4.32;1.30;;;11.30;99.90;;;;;;5087812;28;20454;-74
2023/01/10 05:02:41;;;;;;;2.63;1.15;;;11.30;99.90;;;;;;5087293;28;20044;-74
2023/01/10 05:05:12;;;;;;;4.13;1.33;;;11.30;99.90;;;;;;5087028;28;20147;-75
2023/01/10 05:07:40;;;;;;;4.13;1.35;;;11.30;99.90;;;;;;5087799;28;20040;-74
2023/01/10 05:10:09;;;;;;;7.03;1.48;;;11.30;99.90;;;;;;5084468;28;20067;-73
2023/01/10 05:12:36;;;;;;;3.38;1.50;;;11.30;99.90;;;;;;5088476;28;20051;-74
2023/01/10 05:15:05;;;;;;;5.35;1.15;;;11.30;99.90;;;;;;5087746;28;20051;-73
2023/01/10 05:17:32;;;;;;;6.90;2.65;;;11.40;99.90;;;;;;5088940;28;20158;-74
2023/01/10 05:20:00;;;;;;;5.88;1.92;;;11.30;99.90;;;;;;5087284;28;20052;-73
2023/01/10 05:22:27;;;;;;;9.48;2.70;;;11.40;99.90;;;;;;5087903;28;20040;-74
2023/01/10 05:24:54;;;;;;;4.40;1.40;;;11.40;99.90;;;;;;5087429;28;20044;-74
2023/01/10 05:27:22;;;;;;;5.00;1.90;;;11.40;99.90;;;;;;5088199;28;20397;-74
2023/01/10 05:29:49;;;;;;;6.45;2.63;;;11.40;99.90;;;;;;5088286;28;20032;-73
2023/01/10 05:32:17;;;;;;;5.40;2.78;;;11.40;99.90;;;;;;5087002;28;20036;-73
2023/01/10 05:34:44;;;;;;;7.00;2.00;;;11.40;99.90;;;;;;5088615;28;20459;-73
2023/01/10 05:37:12;;;;;;;2.95;1.65;;;11.40;99.90;;;;;;5088474;28;20064;-73
2023/01/10 05:39:40;;;;;;;3.85;1.52;;;11.40;99.90;;;;;;5088458;28;20063;-74
2023/01/10 05:42:07;;;;;;;2.35;1.20;;;11.40;99.90;;;;;;5088695;28;20126;-73
2023/01/10 05:44:35;;;;;;;3.53;1.08;;;11.40;99.90;;;;;;5092129;28;20367;-73
2023/01/10 05:47:02;;;;;;;6.03;1.45;;;11.30;99.90;;;;;;5092603;28;20048;-74
2023/01/10 05:49:30;;;;;;;4.10;1.52;;;11.40;99.90;;;;;;5091377;28;20676;-74
2023/01/10 05:51:59;;;;;;;6.18;1.80;;;11.30;99.90;;;;;;5093012;28;20032;-73
2023/01/10 05:54:28;;;;;;;5.03;2.75;;;11.40;99.90;;;;;;5092543;28;20127;-73
2023/01/10 05:56:56;;;;;;;6.00;2.90;;;11.30;99.90;;;;;;5091541;28;20450;-74
2023/01/10 05:59:24;;;;;;;5.53;3.85;;;11.20;99.90;;;;;;5090939;28;20046;-73
2023/01/10 06:01:55;;;;;;;7.57;3.53;;;11.20;99.90;;;;;;5091242;28;20036;-74
2023/01/10 06:04:22;;;;;;;9.25;4.60;;;11.20;99.90;;;;;;5091879;28;20055;-73
2023/01/10 06:06:50;;;;;;;6.10;4.18;;;11.10;99.90;;;;;;5092270;28;20051;-74
2023/01/10 06:09:17;;;;;;;9.00;3.70;;;11.10;99.90;;;;;;5091373;28;20048;-74
2023/01/10 06:11:44;;;;;;;8.02;4.43;;;11.10;99.90;;;;;;5091176;28;20433;-74
2023/01/10 06:14:12;;;;;;;11.15;4.90;;;11.10;99.90;;;;;;5090554;28;20058;-73
2023/01/10 06:16:40;;;;;;;7.13;4.68;;;11.20;99.90;;;;;;5090619;28;20377;-73
2023/01/10 06:19:08;;;;;;;4.55;3.10;;;11.20;99.90;;;;;;5091614;28;20436;-74
2023/01/10 06:21:36;;;;;;;8.55;4.00;;;11.30;99.90;;;;;;5091830;28;20055;-73
2023/01/10 06:24:04;;;;;;;7.22;3.40;;;11.30;99.90;;;;;;5090851;28;20044;-74
2023/01/10 06:26:31;;;;;;;4.18;3.35;;;11.40;99.90;;;;;;5089967;28;20052;-74
2023/01/10 06:28:59;;;;;;;7.13;4.10;;;11.30;99.90;;;;;;5088929;28;20474;-75
2023/01/10 06:31:26;;;;;;;6.82;2.90;;;11.20;99.90;;;;;;5092149;28;20063;-73
2023/01/10 06:33:54;;;;;;;4.53;2.80;;;11.20;99.90;;;;;;5054029;28;20048;-74
2023/01/10 06:36:21;;;;;;;5.20;2.30;;;11.20;99.90;;;;;;5083343;28;20505;-74
2023/01/10 06:38:49;;;;;;;6.30;2.40;;;11.20;99.90;;;;;;5090864;28;20516;-74
2023/01/10 06:41:16;;;;;;;5.03;2.20;;;11.20;99.90;;;;;;5087420;28;20562;-74
2023/01/10 06:43:46;;;;;;;5.30;2.30;;;11.30;99.90;;;;;;5094144;28;20043;-74
2023/01/10 06:46:15;;;;;;;4.43;2.55;;;11.40;99.90;;;;;;5088170;28;20058;-73
2023/01/10 06:48:44;;;;;;;6.78;3.10;;;11.40;99.90;;;;;;5091284;28;20393;-73
2023/01/10 06:51:13;;;;;;;8.57;4.18;;;11.50;99.90;;;;;;5091637;28;20048;-74
2023/01/10 06:53:42;;;;;;;5.68;3.60;;;11.50;99.90;;;;;;5091767;28;20047;-74
2023/01/10 06:56:09;;;;;;;6.00;2.85;;;11.50;99.90;;;;;;5091872;28;20036;-74
2023/01/10 06:58:38;;;;;;;4.68;2.00;;;11.60;99.90;;;;;;5091698;28;20082;-74
2023/01/10 07:01:11;;;;;;;6.03;2.60;;;11.70;99.90;;;;;;5091478;28;20481;-73
2023/01/10 07:03:39;;;;;;;5.03;3.47;;;11.70;99.90;;;;;;5089532;28;20508;-74
2023/01/10 07:06:10;;;;;;;5.43;3.20;;;11.80;99.90;;;;;;5091281;28;20040;-73
2023/01/10 07:08:40;;;;;;;4.05;2.65;;;11.90;99.90;;;;;;5090040;28;20383;-73
2023/01/10 07:11:08;;;;;;;4.15;2.42;;;11.90;99.90;;;;;;5089899;28;20160;-73
2023/01/10 07:13:36;;;;;;;15.63;2.35;;;11.90;99.90;;;;;;5073111;28;20048;-74
2023/01/10 07:16:05;;;;;;;5.57;2.00;;;12.00;99.90;;;;;;5090783;28;20139;-74
2023/01/10 07:18:34;;;;;;;4.55;1.42;;;13.10;99.90;;;;;;5091852;28;20719;-73
2023/01/10 07:21:03;;;;;;;6.85;2.53;;;14.60;99.90;;;;;;5091135;28;20038;-72
2023/01/10 07:23:31;;;;;;;4.88;1.40;;;16.00;99.90;;;;;;5055994;28;20067;-72
2023/01/10 07:26:03;;;;;;;2.22;1.40;;;17.30;99.90;;;;;;5089128;28;20051;-72
2023/01/10 07:28:33;;;;;;;4.65;1.60;;;18.20;99.90;;;;;;5073084;28;20974;-74
2023/01/10 07:31:02;;;;;;;3.60;1.50;;;19.20;99.90;;;;;;5089484;28;20085;-72
2023/01/10 07:33:30;;;;;;;2.90;1.63;;;20.10;99.90;;;;;;5089335;28;20046;-71
2023/01/10 07:35:59;;;;;;;3.92;1.52;;;20.70;99.90;;;;;;5073120;28;20040;-74
2023/01/10 07:38:28;;;;;;;3.92;2.22;;;20.60;99.80;;;;;;5089573;28;20046;-75
2023/01/10 07:40:56;;;;;;;8.10;2.92;;;20.60;99.30;;;;;;5090966;28;20066;-72
2023/01/10 07:43:23;;;;;;;3.20;2.00;;;20.60;99.60;;;;;;5089698;28;20044;-70
2023/01/10 07:45:51;;;;;;;4.43;2.47;;;20.80;99.00;;;;;;5090251;28;20058;-70
2023/01/10 07:48:18;;;;;;;4.28;2.30;;;21.00;98.80;;;;;;5071663;28;20059;-71
2023/01/10 07:50:46;;;;;;;4.05;2.38;;;20.80;98.70;;;;;;5090277;28;20523;-71
2023/01/10 07:53:13;;;;;;;5.15;1.55;;;20.50;98.70;;;;;;5089070;28;20460;-70
2023/01/10 07:55:42;;;;;;;3.42;1.63;;;20.70;98.90;;;;;;5090453;28;20135;-71
2023/01/10 07:58:09;;;;;;;4.72;2.20;;;20.70;98.90;;;;;;5089894;28;20371;-71
2023/01/10 08:00:37;;;;;;;5.13;2.22;;;20.80;99.00;;;;;;5072528;28;20044;-70
2023/01/10 08:03:05;;;;;;;3.63;2.30;;;20.50;98.80;;;;;;5089736;28;20562;-71
2023/01/10 08:05:33;;;;;;;3.75;1.92;;;20.10;99.30;;;;;;5088174;28;20051;-77
2023/01/10 08:08:08;;;;;;;3.67;2.15;;;19.90;99.90;;;;;;5088418;28;20040;-70
2023/01/10 08:10:38;;;;;;;4.63;1.52;;;19.60;99.90;;;;;;5088905;28;20044;-73
2023/01/10 08:13:06;;;;;;;6.53;3.88;;;19.60;99.90;;;;;;5072108;28;20052;-72
2023/01/10 08:15:46;;;;;;;4.72;2.90;;;19.70;99.90;;;;;;5076579;28;20123;-72
2023/01/10 08:18:13;;;;;;;4.05;2.53;;;19.70;99.90;;;;;;5088141;28;20052;-71
2023/01/10 08:20:41;;;;;;;4.20;2.22;;;19.70;99.90;;;;;;5086772;28;20063;-71
2023/01/10 08:23:09;;;;;;;5.30;2.20;;;19.50;99.90;;;;;;5069292;28;20093;-71
2023/01/10 08:25:36;;;;;;;4.78;1.67;;;19.30;99.90;;;;;;5086699;28;20146;-75
2023/01/10 08:28:05;;;;;;;3.33;1.85;;;19.10;99.90;;;;;;5087310;28;20043;-72
2023/01/10 08:30:33;;;;;;;4.13;1.85;;;18.90;99.90;;;;;;5089416;28;20048;-73
2023/01/10 08:33:05;;;;;;;5.88;2.17;;;18.60;99.90;;;;;;5088821;28;20386;-70
2023/01/10 08:35:41;;;;;;;6.10;2.00;;;18.00;99.90;;;;;;5085241;28;20109;-71
2023/01/10 08:38:09;;;;;;;3.10;1.80;;;17.10;99.90;;;;;;5079935;28;20070;-73
2023/01/10 08:40:37;;;;;;;6.28;2.00;;;16.50;99.90;;;;;;5089807;28;20048;-71
2023/01/10 08:43:07;;;;;;;3.03;1.75;;;15.80;99.90;;;;;;5088363;28;20075;-72
2023/01/10 08:45:36;;;;;;;3.97;1.92;;;15.20;99.90;;;;;;5087706;28;20421;-73
2023/01/10 08:48:04;;;;;;;4.68;2.05;;;14.80;99.90;;;;;;5058623;28;20052;-74
2023/01/10 08:50:32;;;;;;;4.70;2.05;;;14.40;99.90;;;;;;5088851;28;20147;-73
2023/01/10 08:53:00;;;;;;;9.23;2.15;;;14.20;99.90;;;;;;5071380;28;20044;-73
2023/01/10 08:55:30;;;;;;;4.60;2.17;;;13.90;99.90;;;;;;5071490;28;20071;-72
2023/01/10 08:58:01;;;;;;;2.95;2.17;;;13.60;99.90;;;;;;5089104;28;20044;-72
2023/01/10 09:00:30;;;;;;;4.65;2.10;;;13.50;99.90;;;;;;5084547;28;20040;-73
2023/01/10 09:02:57;;;;;;;4.18;1.65;;;13.40;99.90;;;;;;5088002;28;20052;-74
2023/01/10 09:05:25;;;;;;;3.58;1.88;;;13.20;99.90;;;;;;5087806;28;20036;-72
2023/01/10 09:08:00;;;;;;;3.67;1.88;;;13.10;99.90;;;;;;5086397;28;20710;-72
2023/01/10 09:10:29;;;;;;;7.70;2.60;;;13.00;99.90;;;;;;5060483;28;20043;-72
2023/01/10 09:13:00;;;;;;;5.75;2.40;;;12.90;99.90;;;;;;5079326;28;20044;-73
2023/01/10 09:15:35;;;;;;;5.15;2.20;;;12.80;99.90;;;;;;5089060;28;20150;-73
2023/01/10 09:18:05;;;;;;;2.90;1.50;;;12.70;99.90;;;;;;5082589;28;20037;-74
2023/01/10 09:20:36;;;;;;;3.40;1.70;;;12.70;99.90;;;;;;5089370;28;20443;-75
2023/01/10 09:23:08;;;;;;;5.25;2.45;;;12.70;99.90;;;;;;5089195;28;20048;-73
2023/01/10 09:25:36;;;;;;;6.47;2.35;;;12.80;99.90;;;;;;5087006;28;20051;-74
2023/01/10 09:28:05;;;;;;;5.20;2.70;;;12.90;99.90;;;;;;5081602;28;20256;-72
2023/01/10 09:30:32;;;;;;;6.43;3.17;;;13.20;99.90;;;;;;5088414;28;20056;-74
2023/01/10 09:33:00;;;;;;;7.63;3.00;;;13.50;99.90;;;;;;5069419;28;20043;-76
2023/01/10 09:35:29;;;;;;;4.30;3.03;;;13.80;99.90;;;;;;5072629;28;20137;-74
2023/01/10 09:37:59;;;;;;;4.70;2.47;;;14.10;99.90;;;;;;5068258;28;20046;-73
2023/01/10 09:40:56;;;;;;;9.52;2.50;;;14.30;99.90;;;;;;5081730;28;20562;-70
2023/01/10 09:43:42;;;;;;;5.03;2.38;;;14.60;99.90;;;;;;5087178;28;20394;-73
2023/01/10 09:46:32;;;;;;;8.83;3.90;;;15.10;99.90;;;;;;5068569;28;20378;-73
2023/01/10 09:49:21;;;;;;;5.10;2.83;;;15.30;99.90;;;;;;5062405;28;20059;-73
2023/01/10 09:51:51;;;;;;;10.45;3.72;;;15.30;99.90;;;;;;5084668;28;20154;-73
2023/01/10 09:54:31;;;;;;;6.57;3.13;;;15.30;99.90;;;;;;5057379;28;20064;-77
2023/01/10 09:57:00;;;;;;;5.93;3.45;;;15.30;99.90;;;;;;5087579;28;20074;-76
2023/01/10 09:59:36;;;;;;;8.85;3.58;;;15.20;99.90;;;;;;5048687;28;20047;-73
2023/01/10 10:02:19;;;;;;;7.45;2.83;;;15.10;99.90;;;;;;5066846;28;20251;-73
2023/01/10 10:05:05;;;;;;;5.20;3.53;;;14.90;99.90;;;;;;5068352;28;20566;-73
2023/01/10 10:07:32;;;;;;;5.88;3.20;;;14.80;99.90;;;;;;5078405;28;20040;-73
2023/01/10 10:10:00;;;;;;;7.15;5.75;;;14.60;99.90;;;;;;5076215;28;20048;-75
2023/01/10 10:12:58;;;;;;;10.63;5.80;;;14.70;99.90;;;;;;5074148;28;20463;-73
2023/01/10 10:15:48;;;;;;;10.70;9.60;;;15.10;99.90;;;;;;5076961;28;20040;-75
2023/01/10 10:18:25;;;;;;;7.18;4.95;;;15.60;99.90;;;;;;5076234;28;20135;-71
2023/01/10 10:20:59;;;;;;;4.53;2.65;;;16.00;99.90;;;;;;5077716;28;20193;-72
2023/01/10 10:23:45;;;;;;;8.32;3.20;;;15.70;99.90;;;;;;5067347;28;20463;-71
2023/01/10 10:26:28;;;;;;;4.88;2.38;;;15.30;99.90;;;;;;5077352;28;20043;-73
2023/01/10 10:29:05;;;;;;;9.48;3.65;;;14.70;99.90;;;;;;5087296;28;20052;-74
2023/01/10 10:31:32;;;;;;;6.93;3.53;;;14.40;99.90;;;;;;5057180;28;20048;-74
2023/01/10 10:34:30;;;;;;;5.85;2.40;;;13.90;99.90;;;;;;5088381;28;20525;-74
2023/01/10 10:37:22;;;;;;;5.28;2.45;;;13.60;99.90;;;;;;5071657;28;20060;-73
2023/01/10 10:39:58;;;;;;;3.60;2.13;;;13.30;99.90;;;;;;5073548;28;20105;-72
2023/01/10 10:42:40;;;;;;;8.18;2.50;;;13.30;99.90;;;;;;5052755;28;20735;-72
2023/01/10 10:45:56;;;;;;;5.68;2.47;;;13.30;99.90;;;;;;5082331;28;20094;-73
2023/01/10 10:48:27;;;;;;;7.65;2.45;;;13.70;99.90;;;;;;4999679;28;20149;-73
2023/01/10 10:51:01;;;;;;;3.60;2.22;;;14.20;99.90;;;;;;5060234;28;20060;-73
2023/01/10 10:53:31;;;;;;;5.25;2.83;;;14.60;99.90;;;;;;5081028;28;20051;-74
2023/01/10 10:56:02;;;;;;;6.75;2.72;;;15.10;99.90;;;;;;5087486;28;20044;-72
2023/01/10 10:58:31;;;;;;;10.52;3.40;;;15.30;99.90;;;;;;5081198;28;20075;-71
2023/01/10 11:00:59;;;;;;;8.70;2.53;;;15.40;99.90;;;;;;5083932;28;20123;-72
2023/01/10 11:04:07;;;;;;;7.07;3.22;;;15.60;99.90;;;;;;5086691;28;20076;-71
2023/01/10 11:06:37;;;;;;;3.42;1.83;;;15.50;99.90;;;;;;5084918;28;20051;-70
2023/01/10 11:09:06;;;;;;;6.10;3.08;;;15.30;99.90;;;;;;5051559;28;20102;-71
2023/01/10 11:11:45;;;;;;;3.67;2.05;;;15.40;99.90;;;;;;5087140;28;20040;-73
2023/01/10 11:14:13;;;;;;;3.63;1.98;;;15.50;99.90;;;;;;5073996;28;20134;-72
2023/01/10 11:16:43;;;;;;;5.65;2.00;;;15.30;99.90;;;;;;5080914;28;20040;-71
2023/01/10 11:19:19;;;;;;;5.00;1.75;;;15.20;99.90;;;;;;5081212;28;20041;-71
2023/01/10 11:21:56;;;;;;;2.60;1.88;;;15.20;99.90;;;;;;5085841;28;20530;-71
2023/01/10 11:24:33;;;;;;;3.08;2.28;;;15.20;99.90;;;;;;5065598;28;20128;-72
2023/01/10 11:27:13;;;;;;;16.77;9.07;;;15.20;99.90;;;;;;5063888;28;20066;-71
2023/01/10 11:29:50;;;;;;;6.93;4.63;;;15.30;99.90;;;;;;5080451;28;20137;-71
2023/01/10 11:32:26;;;;;;;3.40;2.05;;;15.30;99.90;;;;;;5080723;28;20137;-71
2023/01/10 11:35:09;;;;;;;4.13;2.30;;;15.20;99.90;;;;;;5080280;28;20359;-71
2023/01/10 11:37:36;;;;;;;3.40;2.10;;;15.20;99.90;;;;;;5068512;28;20055;-75
2023/01/10 11:40:18;;;;;;;6.03;2.90;;;15.30;99.90;;;;;;5082730;28;20040;-73
2023/01/10 11:42:47;;;;;;;4.40;2.45;;;15.20;99.90;;;;;;5072520;28;20143;-73
2023/01/10 11:45:18;;;;;;;6.82;3.28;;;15.40;99.90;;;;;;5088604;28;20048;-73
2023/01/10 11:48:18;;;;;;;9.35;3.45;;;15.50;99.90;;;;;;5055330;28;20151;-76
2023/01/10 11:50:53;;;;;;;6.07;2.45;;;15.80;99.90;;;;;;5090300;28;20046;-74
2023/01/10 11:53:47;;;;;;;4.63;2.95;;;16.00;99.90;;;;;;5089907;28;20155;-74
2023/01/10 11:56:33;;;;;;;5.25;2.92;;;16.20;99.90;;;;;;5087324;28;20548;-72
2023/01/10 11:59:14;;;;;;;6.80;3.45;;;16.30;99.90;;;;;;5087522;28;20047;-72
2023/01/10 12:01:47;;;;;;;7.85;3.22;;;16.30;99.90;;;;;;5088173;28;20050;-71
2023/01/10 12:04:16;;;;;;;3.42;2.67;;;16.30;99.90;;;;;;5089466;28;20059;-71
2023/01/10 12:06:47;;;;;;;5.63;3.90;;;16.30;99.90;;;;;;5088832;28;20068;-73
2023/01/10 12:09:31;;;;;;;8.00;3.55;;;16.40;99.90;;;;;;5071378;28;20056;-72
2023/01/10 12:12:29;;;;;;;5.03;3.75;;;16.40;99.90;;;;;;5071946;28;20062;-71
2023/01/10 12:14:59;;;;;;;3.67;2.85;;;16.30;99.90;;;;;;5065567;28;20074;-71
2023/01/10 12:17:35;;;;;;;4.43;2.83;;;16.40;99.90;;;;;;5080405;28;20056;-72
2023/01/10 12:20:05;;;;;;;4.38;2.22;;;16.50;99.90;;;;;;5089174;28;20420;-72
2023/01/10 12:22:34;;;;;;;5.70;2.13;;;16.60;99.90;;;;;;5071164;28;20040;-71
2023/01/10 12:25:13;;;;;;;6.63;3.88;;;16.70;99.90;;;;;;5088137;28;20044;-72
2023/01/10 12:27:43;;;;;;;5.88;3.30;;;16.90;99.90;;;;;;5088358;28;20085;-72
2023/01/10 12:30:16;;;;;;;3.88;2.33;;;16.90;99.90;;;;;;5087419;28;20040;-71
2023/01/10 12:32:50;;;;;;;6.50;2.72;;;17.00;99.90;;;;;;5087590;28;20080;-74
2023/01/10 12:35:30;;;;;;;3.42;1.65;;;16.90;99.90;;;;;;5052068;28;20051;-71
2023/01/10 12:38:20;;;;;;;5.80;2.63;;;16.90;99.90;;;;;;5088961;28;20040;-71
2023/01/10 12:40:59;;;;;;;4.13;1.98;;;16.90;99.90;;;;;;5088020;28;20075;-73
2023/01/10 12:46:37;;;;;;;8.00;4.72;;;16.90;99.90;;;;;;5088359;28;20067;-72
2023/01/10 12:49:36;;;;;;;8.02;5.45;;;16.80;99.90;;;;;;5087523;28;20040;-73
2023/01/10 12:52:11;;;;;;;5.78;3.35;;;16.90;99.90;;;;;;5074602;28;20052;-73
2023/01/10 12:54:39;;;;;;;6.72;3.70;;;16.60;99.90;;;;;;5077933;28;20045;-73
2023/01/10 12:57:29;;;;;;;6.18;4.68;;;16.60;99.90;;;;;;5068463;28;20103;-72
2023/01/10 13:00:00;;;;;;;6.85;4.25;;;16.70;99.90;;;;;;5069314;28;20044;-73
2023/01/10 13:02:37;;;;;;;6.35;3.63;;;16.70;99.90;;;;;;5086584;28;20052;-72
2023/01/10 13:05:07;;;;;;;6.25;3.03;;;16.60;99.90;;;;;;5086990;28;20066;-72
2023/01/10 13:07:36;;;;;;;7.82;3.70;;;16.30;99.90;;;;;;5087663;28;20127;-71
2023/01/10 13:10:06;;;;;;;5.05;3.00;;;16.00;99.90;;;;;;5073364;28;20866;-74
2023/01/10 13:12:39;;;;;;;4.05;2.35;;;15.90;99.90;;;;;;5082243;28;20135;-72
2023/01/10 13:15:21;;;;;;;2.53;1.65;;;15.50;99.90;;;;;;5057352;28;20517;-73
2023/01/10 13:17:55;;;;;;;3.17;1.52;;;15.30;99.90;;;;;;5070094;28;20665;-72
2023/01/10 13:20:23;;;;;;;4.32;2.28;;;15.20;99.90;;;;;;5069631;28;20109;-72
2023/01/10 13:22:54;;;;;;;4.00;2.60;;;15.30;99.90;;;;;;5085325;28;20455;-71
2023/01/10 13:25:36;;;;;;;4.65;3.00;;;15.20;99.90;;;;;;5088191;28;20119;-71
2023/01/10 13:28:15;;;;;;;3.53;2.53;;;15.20;99.90;;;;;;5075128;28;20049;-72